sensor_id;sensor_type;location;lat;lon;timestamp;P1;durP1;ratioP1;P2;durP2;ratioP2
4268;SDS011;2148;48.554;7.834;2022-10-31T00:00:40;6.57;;;4.60;;
4268;SDS011;2148;48.554;7.834;2022-10-31T00:03:06;14.10;;;5.00;;
4268;SDS011;2148;48.554;7.834;2022-10-31T00:05:31;6.83;;;5.00;;
4268;SDS011;2148;48.554;7.834;2022-10-31T00:07:56;6.40;;;5.10;;
4268;SDS011;2148;48.554;7.834;2022-10-31T00:10:21;6.77;;;4.97;;
4268;SDS011;2148;48.554;7.834;2022-10-31T00:12:46;6.57;;;4.90;;
4268;SDS011;2148;48.554;7.834;2022-10-31T00:15:12;7.43;;;4.93;;
4268;SDS011;2148;48.554;7.834;2022-10-31T00:17:37;6.23;;;4.80;;
4268;SDS011;2148;48.554;7.834;2022-10-31T00:20:02;7.37;;;4.90;;
4268;SDS011;2148;48.554;7.834;2022-10-31T00:22:28;5.60;;;4.70;;
4268;SDS011;2148;48.554;7.834;2022-10-31T00:24:53;7.37;;;5.77;;
4268;SDS011;2148;48.554;7.834;2022-10-31T00:27:18;5.87;;;5.23;;
4268;SDS011;2148;48.554;7.834;2022-10-31T00:29:43;7.20;;;4.87;;
4268;SDS011;2148;48.554;7.834;2022-10-31T00:32:09;7.50;;;4.93;;
4268;SDS011;2148;48.554;7.834;2022-10-31T00:34:34;5.47;;;4.97;;
4268;SDS011;2148;48.554;7.834;2022-10-31T00:36:59;5.90;;;4.87;;
4268;SDS011;2148;48.554;7.834;2022-10-31T00:39:24;7.03;;;4.97;;
4268;SDS011;2148;48.554;7.834;2022-10-31T00:41:49;5.97;;;4.53;;
4268;SDS011;2148;48.554;7.834;2022-10-31T00:44:15;4.87;;;4.30;;
4268;SDS011;2148;48.554;7.834;2022-10-31T00:46:40;4.80;;;4.10;;
4268;SDS011;2148;48.554;7.834;2022-10-31T00:49:05;5.43;;;4.63;;
4268;SDS011;2148;48.554;7.834;2022-10-31T00:51:30;5.70;;;4.30;;
4268;SDS011;2148;48.554;7.834;2022-10-31T00:53:56;5.23;;;4.67;;
4268;SDS011;2148;48.554;7.834;2022-10-31T00:56:21;7.90;;;4.87;;
4268;SDS011;2148;48.554;7.834;2022-10-31T00:58:46;4.43;;;4.03;;
4268;SDS011;2148;48.554;7.834;2022-10-31T01:01:11;5.70;;;4.47;;
4268;SDS011;2148;48.554;7.834;2022-10-31T01:03:38;4.87;;;4.07;;
4268;SDS011;2148;48.554;7.834;2022-10-31T01:06:06;4.87;;;4.27;;
4268;SDS011;2148;48.554;7.834;2022-10-31T01:08:32;5.03;;;4.37;;
4268;SDS011;2148;48.554;7.834;2022-10-31T01:10:59;5.93;;;4.20;;
4268;SDS011;2148;48.554;7.834;2022-10-31T01:13:25;5.63;;;4.57;;
4268;SDS011;2148;48.554;7.834;2022-10-31T01:15:54;4.73;;;4.23;;
4268;SDS011;2148;48.554;7.834;2022-10-31T01:18:20;5.83;;;4.50;;
4268;SDS011;2148;48.554;7.834;2022-10-31T01:20:46;5.13;;;4.17;;
4268;SDS011;2148;48.554;7.834;2022-10-31T01:23:11;10.00;;;4.37;;
4268;SDS011;2148;48.554;7.834;2022-10-31T01:25:36;5.60;;;4.27;;
4268;SDS011;2148;48.554;7.834;2022-10-31T01:28:01;5.03;;;4.50;;
4268;SDS011;2148;48.554;7.834;2022-10-31T01:30:27;5.63;;;4.37;;
4268;SDS011;2148;48.554;7.834;2022-10-31T01:32:52;7.33;;;4.70;;
4268;SDS011;2148;48.554;7.834;2022-10-31T01:35:17;5.37;;;4.47;;
4268;SDS011;2148;48.554;7.834;2022-10-31T01:37:43;4.53;;;4.13;;
4268;SDS011;2148;48.554;7.834;2022-10-31T01:40:08;6.10;;;4.57;;
4268;SDS011;2148;48.554;7.834;2022-10-31T01:42:34;6.87;;;4.73;;
4268;SDS011;2148;48.554;7.834;2022-10-31T01:45:00;6.10;;;4.67;;
4268;SDS011;2148;48.554;7.834;2022-10-31T01:47:45;5.63;;;3.93;;
4268;SDS011;2148;48.554;7.834;2022-10-31T01:50:14;7.17;;;4.30;;
4268;SDS011;2148;48.554;7.834;2022-10-31T01:52:46;4.87;;;4.40;;
4268;SDS011;2148;48.554;7.834;2022-10-31T01:55:18;6.90;;;4.90;;
4268;SDS011;2148;48.554;7.834;2022-10-31T01:57:50;4.43;;;4.03;;
4268;SDS011;2148;48.554;7.834;2022-10-31T02:00:17;5.53;;;4.13;;
4268;SDS011;2148;48.554;7.834;2022-10-31T02:02:44;4.97;;;4.10;;
4268;SDS011;2148;48.554;7.834;2022-10-31T02:05:12;8.13;;;4.23;;
4268;SDS011;2148;48.554;7.834;2022-10-31T02:10:15;6.07;;;4.30;;
4268;SDS011;2148;48.554;7.834;2022-10-31T02:12:40;6.73;;;4.13;;
4268;SDS011;2148;48.554;7.834;2022-10-31T02:15:06;7.63;;;4.57;;
4268;SDS011;2148;48.554;7.834;2022-10-31T02:17:32;5.00;;;3.93;;
4268;SDS011;2148;48.554;7.834;2022-10-31T02:20:07;5.60;;;4.60;;
4268;SDS011;2148;48.554;7.834;2022-10-31T02:34:26;4.87;;;3.67;;
4268;SDS011;2148;48.554;7.834;2022-10-31T02:40:04;5.77;;;3.93;;
4268;SDS011;2148;48.554;7.834;2022-10-31T02:45:21;6.73;;;3.93;;
4268;SDS011;2148;48.554;7.834;2022-10-31T02:47:53;7.20;;;4.27;;
4268;SDS011;2148;48.554;7.834;2022-10-31T02:50:22;4.87;;;3.73;;
4268;SDS011;2148;48.554;7.834;2022-10-31T02:52:52;7.20;;;3.93;;
4268;SDS011;2148;48.554;7.834;2022-10-31T02:57:49;8.17;;;3.90;;
4268;SDS011;2148;48.554;7.834;2022-10-31T03:00:16;5.20;;;4.13;;
4268;SDS011;2148;48.554;7.834;2022-10-31T03:02:43;5.90;;;3.50;;
4268;SDS011;2148;48.554;7.834;2022-10-31T03:08:23;6.00;;;3.90;;
4268;SDS011;2148;48.554;7.834;2022-10-31T03:10:53;6.03;;;4.10;;
4268;SDS011;2148;48.554;7.834;2022-10-31T03:13:29;6.00;;;4.10;;
4268;SDS011;2148;48.554;7.834;2022-10-31T03:16:23;5.53;;;4.20;;
4268;SDS011;2148;48.554;7.834;2022-10-31T03:18:50;5.53;;;3.90;;
4268;SDS011;2148;48.554;7.834;2022-10-31T03:24:15;6.80;;;3.73;;
4268;SDS011;2148;48.554;7.834;2022-10-31T03:26:51;6.80;;;3.60;;
4268;SDS011;2148;48.554;7.834;2022-10-31T03:29:19;5.47;;;3.83;;
4268;SDS011;2148;48.554;7.834;2022-10-31T03:31:56;7.07;;;4.30;;
4268;SDS011;2148;48.554;7.834;2022-10-31T03:34:23;4.20;;;3.77;;
4268;SDS011;2148;48.554;7.834;2022-10-31T03:36:49;4.83;;;3.53;;
4268;SDS011;2148;48.554;7.834;2022-10-31T03:39:17;3.90;;;3.50;;
4268;SDS011;2148;48.554;7.834;2022-10-31T03:41:44;4.93;;;3.33;;
4268;SDS011;2148;48.554;7.834;2022-10-31T03:44:13;8.70;;;4.20;;
4268;SDS011;2148;48.554;7.834;2022-10-31T03:46:41;3.93;;;3.53;;
4268;SDS011;2148;48.554;7.834;2022-10-31T03:49:07;5.13;;;3.87;;
4268;SDS011;2148;48.554;7.834;2022-10-31T03:51:35;5.60;;;4.07;;
4268;SDS011;2148;48.554;7.834;2022-10-31T03:54:05;5.17;;;3.77;;
4268;SDS011;2148;48.554;7.834;2022-10-31T03:56:35;5.53;;;3.70;;
4268;SDS011;2148;48.554;7.834;2022-10-31T04:01:32;4.37;;;3.47;;
4268;SDS011;2148;48.554;7.834;2022-10-31T04:03:59;5.53;;;3.80;;
4268;SDS011;2148;48.554;7.834;2022-10-31T04:06:25;4.73;;;3.53;;
4268;SDS011;2148;48.554;7.834;2022-10-31T04:08:53;7.67;;;3.93;;
4268;SDS011;2148;48.554;7.834;2022-10-31T04:11:23;4.97;;;3.30;;
4268;SDS011;2148;48.554;7.834;2022-10-31T04:13:51;4.33;;;3.47;;
4268;SDS011;2148;48.554;7.834;2022-10-31T04:16:17;5.63;;;3.50;;
4268;SDS011;2148;48.554;7.834;2022-10-31T04:18:42;6.67;;;3.80;;
4268;SDS011;2148;48.554;7.834;2022-10-31T04:21:08;4.80;;;2.97;;
4268;SDS011;2148;48.554;7.834;2022-10-31T04:23:34;3.60;;;3.30;;
4268;SDS011;2148;48.554;7.834;2022-10-31T04:26:00;5.57;;;3.17;;
4268;SDS011;2148;48.554;7.834;2022-10-31T04:28:25;3.97;;;3.40;;
4268;SDS011;2148;48.554;7.834;2022-10-31T04:30:51;5.40;;;3.23;;
4268;SDS011;2148;48.554;7.834;2022-10-31T04:33:16;3.50;;;3.20;;
4268;SDS011;2148;48.554;7.834;2022-10-31T04:35:42;4.57;;;3.10;;
4268;SDS011;2148;48.554;7.834;2022-10-31T04:38:07;5.03;;;3.37;;
4268;SDS011;2148;48.554;7.834;2022-10-31T04:40:32;3.93;;;3.00;;
4268;SDS011;2148;48.554;7.834;2022-10-31T04:42:58;4.87;;;3.73;;
4268;SDS011;2148;48.554;7.834;2022-10-31T04:45:23;3.70;;;3.27;;
4268;SDS011;2148;48.554;7.834;2022-10-31T04:47:48;5.73;;;3.70;;
4268;SDS011;2148;48.554;7.834;2022-10-31T04:50:13;4.03;;;3.60;;
4268;SDS011;2148;48.554;7.834;2022-10-31T04:52:39;5.40;;;3.77;;
4268;SDS011;2148;48.554;7.834;2022-10-31T04:55:05;5.50;;;4.00;;
4268;SDS011;2148;48.554;7.834;2022-10-31T04:57:31;4.10;;;3.70;;
4268;SDS011;2148;48.554;7.834;2022-10-31T04:59:56;4.30;;;3.57;;
4268;SDS011;2148;48.554;7.834;2022-10-31T05:02:21;5.07;;;4.07;;
4268;SDS011;2148;48.554;7.834;2022-10-31T05:04:47;4.93;;;3.60;;
4268;SDS011;2148;48.554;7.834;2022-10-31T05:07:12;4.43;;;3.20;;
4268;SDS011;2148;48.554;7.834;2022-10-31T05:09:37;5.70;;;3.50;;
4268;SDS011;2148;48.554;7.834;2022-10-31T05:12:02;4.50;;;3.83;;
4268;SDS011;2148;48.554;7.834;2022-10-31T05:14:28;4.93;;;3.80;;
4268;SDS011;2148;48.554;7.834;2022-10-31T05:16:53;3.87;;;3.37;;
4268;SDS011;2148;48.554;7.834;2022-10-31T05:19:19;5.20;;;3.53;;
4268;SDS011;2148;48.554;7.834;2022-10-31T05:21:44;5.33;;;3.67;;
4268;SDS011;2148;48.554;7.834;2022-10-31T05:24:09;3.80;;;3.50;;
4268;SDS011;2148;48.554;7.834;2022-10-31T05:26:34;7.70;;;4.03;;
4268;SDS011;2148;48.554;7.834;2022-10-31T05:29:00;4.13;;;3.40;;
4268;SDS011;2148;48.554;7.834;2022-10-31T05:31:25;4.87;;;4.00;;
4268;SDS011;2148;48.554;7.834;2022-10-31T05:33:50;6.23;;;3.80;;
4268;SDS011;2148;48.554;7.834;2022-10-31T05:36:15;9.03;;;4.03;;
4268;SDS011;2148;48.554;7.834;2022-10-31T05:38:41;4.03;;;3.20;;
4268;SDS011;2148;48.554;7.834;2022-10-31T05:41:06;3.77;;;3.20;;
4268;SDS011;2148;48.554;7.834;2022-10-31T05:43:31;6.13;;;3.33;;
4268;SDS011;2148;48.554;7.834;2022-10-31T05:45:56;4.27;;;3.47;;
4268;SDS011;2148;48.554;7.834;2022-10-31T05:48:22;7.73;;;3.77;;
4268;SDS011;2148;48.554;7.834;2022-10-31T05:50:48;5.13;;;3.47;;
4268;SDS011;2148;48.554;7.834;2022-10-31T05:53:13;4.40;;;4.00;;
4268;SDS011;2148;48.554;7.834;2022-10-31T05:55:39;8.07;;;3.80;;
4268;SDS011;2148;48.554;7.834;2022-10-31T05:58:05;3.90;;;3.47;;
4268;SDS011;2148;48.554;7.834;2022-10-31T06:00:31;6.13;;;4.23;;
4268;SDS011;2148;48.554;7.834;2022-10-31T06:02:57;5.97;;;4.67;;
4268;SDS011;2148;48.554;7.834;2022-10-31T06:05:26;6.07;;;4.17;;
4268;SDS011;2148;48.554;7.834;2022-10-31T06:07:52;4.27;;;3.67;;
4268;SDS011;2148;48.554;7.834;2022-10-31T06:10:17;5.97;;;3.57;;
4268;SDS011;2148;48.554;7.834;2022-10-31T06:12:44;5.07;;;3.63;;
4268;SDS011;2148;48.554;7.834;2022-10-31T06:15:09;8.17;;;3.57;;
4268;SDS011;2148;48.554;7.834;2022-10-31T06:17:35;5.47;;;3.43;;
4268;SDS011;2148;48.554;7.834;2022-10-31T06:20:00;5.43;;;3.60;;
4268;SDS011;2148;48.554;7.834;2022-10-31T06:22:26;4.87;;;3.30;;
4268;SDS011;2148;48.554;7.834;2022-10-31T06:24:51;4.47;;;3.80;;
4268;SDS011;2148;48.554;7.834;2022-10-31T06:27:17;5.27;;;4.00;;
4268;SDS011;2148;48.554;7.834;2022-10-31T06:29:42;6.03;;;3.60;;
4268;SDS011;2148;48.554;7.834;2022-10-31T06:32:09;5.93;;;3.50;;
4268;SDS011;2148;48.554;7.834;2022-10-31T06:34:35;6.00;;;4.07;;
4268;SDS011;2148;48.554;7.834;2022-10-31T06:37:00;5.23;;;3.70;;
4268;SDS011;2148;48.554;7.834;2022-10-31T06:39:25;3.80;;;3.23;;
4268;SDS011;2148;48.554;7.834;2022-10-31T06:41:51;8.33;;;3.50;;
4268;SDS011;2148;48.554;7.834;2022-10-31T06:44:16;4.63;;;3.57;;
4268;SDS011;2148;48.554;7.834;2022-10-31T06:46:41;4.77;;;3.53;;
4268;SDS011;2148;48.554;7.834;2022-10-31T06:49:06;4.53;;;3.20;;
4268;SDS011;2148;48.554;7.834;2022-10-31T06:51:32;11.53;;;3.33;;
4268;SDS011;2148;48.554;7.834;2022-10-31T06:53:57;4.63;;;2.93;;
4268;SDS011;2148;48.554;7.834;2022-10-31T06:56:22;4.23;;;3.83;;
4268;SDS011;2148;48.554;7.834;2022-10-31T06:58:47;6.27;;;4.17;;
4268;SDS011;2148;48.554;7.834;2022-10-31T07:01:13;4.30;;;3.70;;
4268;SDS011;2148;48.554;7.834;2022-10-31T07:03:38;4.43;;;4.03;;
4268;SDS011;2148;48.554;7.834;2022-10-31T07:06:03;3.93;;;3.43;;
4268;SDS011;2148;48.554;7.834;2022-10-31T07:08:28;4.93;;;3.50;;
4268;SDS011;2148;48.554;7.834;2022-10-31T07:10:57;4.00;;;3.60;;
4268;SDS011;2148;48.554;7.834;2022-10-31T07:13:22;3.50;;;3.13;;
4268;SDS011;2148;48.554;7.834;2022-10-31T07:15:51;3.30;;;3.00;;
4268;SDS011;2148;48.554;7.834;2022-10-31T07:18:18;4.07;;;3.63;;
4268;SDS011;2148;48.554;7.834;2022-10-31T07:20:44;3.67;;;3.37;;
4268;SDS011;2148;48.554;7.834;2022-10-31T07:23:09;4.07;;;3.03;;
4268;SDS011;2148;48.554;7.834;2022-10-31T07:25:35;7.23;;;4.03;;
4268;SDS011;2148;48.554;7.834;2022-10-31T07:28:01;6.77;;;3.40;;
4268;SDS011;2148;48.554;7.834;2022-10-31T07:30:26;4.80;;;3.60;;
4268;SDS011;2148;48.554;7.834;2022-10-31T07:32:51;4.87;;;3.33;;
4268;SDS011;2148;48.554;7.834;2022-10-31T07:35:18;4.03;;;3.40;;
4268;SDS011;2148;48.554;7.834;2022-10-31T07:37:44;3.70;;;3.33;;
4268;SDS011;2148;48.554;7.834;2022-10-31T07:40:10;5.20;;;3.97;;
4268;SDS011;2148;48.554;7.834;2022-10-31T07:42:35;4.13;;;3.43;;
4268;SDS011;2148;48.554;7.834;2022-10-31T07:45:04;6.87;;;3.30;;
4268;SDS011;2148;48.554;7.834;2022-10-31T07:47:40;7.57;;;4.53;;
4268;SDS011;2148;48.554;7.834;2022-10-31T07:50:07;7.47;;;3.97;;
4268;SDS011;2148;48.554;7.834;2022-10-31T07:52:33;4.10;;;3.70;;
4268;SDS011;2148;48.554;7.834;2022-10-31T07:54:59;7.30;;;3.73;;
4268;SDS011;2148;48.554;7.834;2022-10-31T07:57:24;5.60;;;3.60;;
4268;SDS011;2148;48.554;7.834;2022-10-31T07:59:49;5.47;;;4.07;;
4268;SDS011;2148;48.554;7.834;2022-10-31T08:02:15;5.13;;;3.53;;
4268;SDS011;2148;48.554;7.834;2022-10-31T08:04:40;8.07;;;4.13;;
4268;SDS011;2148;48.554;7.834;2022-10-31T08:07:06;6.63;;;3.70;;
4268;SDS011;2148;48.554;7.834;2022-10-31T08:09:31;6.07;;;3.93;;
4268;SDS011;2148;48.554;7.834;2022-10-31T08:11:56;4.70;;;3.80;;
4268;SDS011;2148;48.554;7.834;2022-10-31T08:14:21;7.23;;;4.37;;
4268;SDS011;2148;48.554;7.834;2022-10-31T08:16:47;6.57;;;3.87;;
4268;SDS011;2148;48.554;7.834;2022-10-31T08:19:12;5.23;;;3.83;;
4268;SDS011;2148;48.554;7.834;2022-10-31T08:21:38;5.03;;;3.77;;
4268;SDS011;2148;48.554;7.834;2022-10-31T08:24:03;6.57;;;4.00;;
4268;SDS011;2148;48.554;7.834;2022-10-31T08:26:28;7.40;;;3.70;;
4268;SDS011;2148;48.554;7.834;2022-10-31T08:28:54;4.47;;;3.70;;
4268;SDS011;2148;48.554;7.834;2022-10-31T08:31:19;5.83;;;4.07;;
4268;SDS011;2148;48.554;7.834;2022-10-31T08:33:45;5.77;;;3.93;;
4268;SDS011;2148;48.554;7.834;2022-10-31T08:36:10;4.80;;;4.10;;
4268;SDS011;2148;48.554;7.834;2022-10-31T08:38:36;8.60;;;4.67;;
4268;SDS011;2148;48.554;7.834;2022-10-31T08:41:01;7.53;;;4.77;;
4268;SDS011;2148;48.554;7.834;2022-10-31T08:43:26;7.07;;;4.40;;
4268;SDS011;2148;48.554;7.834;2022-10-31T08:45:51;10.23;;;5.30;;
4268;SDS011;2148;48.554;7.834;2022-10-31T08:48:19;9.00;;;4.57;;
4268;SDS011;2148;48.554;7.834;2022-10-31T08:50:45;7.27;;;4.73;;
4268;SDS011;2148;48.554;7.834;2022-10-31T08:53:12;7.40;;;5.00;;
4268;SDS011;2148;48.554;7.834;2022-10-31T08:55:39;8.13;;;5.13;;
4268;SDS011;2148;48.554;7.834;2022-10-31T08:58:06;8.47;;;5.77;;
4268;SDS011;2148;48.554;7.834;2022-10-31T09:00:33;10.93;;;7.33;;
4268;SDS011;2148;48.554;7.834;2022-10-31T09:02:59;12.37;;;7.17;;
4268;SDS011;2148;48.554;7.834;2022-10-31T09:05:29;10.50;;;6.90;;
4268;SDS011;2148;48.554;7.834;2022-10-31T09:07:55;10.53;;;6.47;;
4268;SDS011;2148;48.554;7.834;2022-10-31T09:10:22;11.17;;;7.90;;
4268;SDS011;2148;48.554;7.834;2022-10-31T09:12:47;11.27;;;7.57;;
4268;SDS011;2148;48.554;7.834;2022-10-31T09:15:12;13.27;;;7.47;;
4268;SDS011;2148;48.554;7.834;2022-10-31T09:17:37;12.97;;;7.47;;
4268;SDS011;2148;48.554;7.834;2022-10-31T09:20:03;10.33;;;6.87;;
4268;SDS011;2148;48.554;7.834;2022-10-31T09:22:28;12.07;;;7.37;;
4268;SDS011;2148;48.554;7.834;2022-10-31T09:24:53;11.03;;;8.10;;
4268;SDS011;2148;48.554;7.834;2022-10-31T09:27:18;12.07;;;8.43;;
4268;SDS011;2148;48.554;7.834;2022-10-31T09:29:44;14.53;;;8.43;;
4268;SDS011;2148;48.554;7.834;2022-10-31T09:32:09;13.10;;;8.37;;
4268;SDS011;2148;48.554;7.834;2022-10-31T09:34:34;12.13;;;7.47;;
4268;SDS011;2148;48.554;7.834;2022-10-31T09:36:59;10.63;;;7.93;;
4268;SDS011;2148;48.554;7.834;2022-10-31T09:39:25;11.13;;;7.20;;
4268;SDS011;2148;48.554;7.834;2022-10-31T09:42:13;11.03;;;7.00;;
4268;SDS011;2148;48.554;7.834;2022-10-31T09:44:52;9.80;;;7.00;;
4268;SDS011;2148;48.554;7.834;2022-10-31T09:47:27;10.43;;;6.83;;
4268;SDS011;2148;48.554;7.834;2022-10-31T09:53:34;12.93;;;7.07;;
4268;SDS011;2148;48.554;7.834;2022-10-31T09:55:47;13.50;;;8.30;;
4268;SDS011;2148;48.554;7.834;2022-10-31T09:58:26;15.10;;;7.50;;
4268;SDS011;2148;48.554;7.834;2022-10-31T10:00:53;11.60;;;7.47;;
4268;SDS011;2148;48.554;7.834;2022-10-31T10:06:06;9.97;;;7.30;;
4268;SDS011;2148;48.554;7.834;2022-10-31T10:08:41;8.93;;;7.07;;
4268;SDS011;2148;48.554;7.834;2022-10-31T10:11:17;10.90;;;7.33;;
4268;SDS011;2148;48.554;7.834;2022-10-31T10:21:39;11.97;;;8.90;;
4268;SDS011;2148;48.554;7.834;2022-10-31T10:26:36;13.13;;;8.87;;
4268;SDS011;2148;48.554;7.834;2022-10-31T10:32:02;16.13;;;8.70;;
4268;SDS011;2148;48.554;7.834;2022-10-31T10:34:41;14.20;;;8.57;;
4268;SDS011;2148;48.554;7.834;2022-10-31T10:37:17;13.53;;;8.40;;
4268;SDS011;2148;48.554;7.834;2022-10-31T10:39:48;12.93;;;9.40;;
4268;SDS011;2148;48.554;7.834;2022-10-31T10:42:16;12.67;;;7.90;;
4268;SDS011;2148;48.554;7.834;2022-10-31T10:45:00;10.83;;;8.07;;
4268;SDS011;2148;48.554;7.834;2022-10-31T10:47:58;16.87;;;8.83;;
4268;SDS011;2148;48.554;7.834;2022-10-31T10:50:34;10.90;;;8.60;;
4268;SDS011;2148;48.554;7.834;2022-10-31T10:55:39;11.50;;;8.03;;
4268;SDS011;2148;48.554;7.834;2022-10-31T10:58:26;11.67;;;7.97;;
4268;SDS011;2148;48.554;7.834;2022-10-31T11:00:52;13.43;;;8.40;;
4268;SDS011;2148;48.554;7.834;2022-10-31T11:03:19;12.17;;;8.80;;
4268;SDS011;2148;48.554;7.834;2022-10-31T11:05:51;14.33;;;9.43;;
4268;SDS011;2148;48.554;7.834;2022-10-31T11:08:28;9.53;;;7.67;;
4268;SDS011;2148;48.554;7.834;2022-10-31T11:13:26;15.17;;;8.57;;
4268;SDS011;2148;48.554;7.834;2022-10-31T11:18:54;14.23;;;9.70;;
4268;SDS011;2148;48.554;7.834;2022-10-31T11:21:44;17.67;;;10.13;;
4268;SDS011;2148;48.554;7.834;2022-10-31T11:26:35;16.73;;;10.57;;
4268;SDS011;2148;48.554;7.834;2022-10-31T11:29:05;17.63;;;10.10;;
4268;SDS011;2148;48.554;7.834;2022-10-31T11:31:45;15.23;;;9.03;;
4268;SDS011;2148;48.554;7.834;2022-10-31T11:34:45;12.93;;;9.00;;
4268;SDS011;2148;48.554;7.834;2022-10-31T11:37:12;17.17;;;9.20;;
4268;SDS011;2148;48.554;7.834;2022-10-31T11:39:50;24.10;;;11.13;;
4268;SDS011;2148;48.554;7.834;2022-10-31T11:42:27;15.13;;;10.37;;
4268;SDS011;2148;48.554;7.834;2022-10-31T11:44:55;12.30;;;8.83;;
4268;SDS011;2148;48.554;7.834;2022-10-31T11:47:23;10.57;;;8.77;;
4268;SDS011;2148;48.554;7.834;2022-10-31T11:49:51;14.17;;;8.73;;
4268;SDS011;2148;48.554;7.834;2022-10-31T11:52:18;12.97;;;8.77;;
4268;SDS011;2148;48.554;7.834;2022-10-31T11:54:48;15.47;;;8.20;;
4268;SDS011;2148;48.554;7.834;2022-10-31T11:57:33;12.63;;;8.83;;
4268;SDS011;2148;48.554;7.834;2022-10-31T12:00:22;12.07;;;8.10;;
4268;SDS011;2148;48.554;7.834;2022-10-31T12:03:04;12.17;;;9.17;;
4268;SDS011;2148;48.554;7.834;2022-10-31T12:05:51;12.80;;;8.83;;
4268;SDS011;2148;48.554;7.834;2022-10-31T12:08:21;10.33;;;8.50;;
4268;SDS011;2148;48.554;7.834;2022-10-31T12:14:00;13.40;;;9.93;;
4268;SDS011;2148;48.554;7.834;2022-10-31T12:16:07;12.93;;;9.30;;
4268;SDS011;2148;48.554;7.834;2022-10-31T12:21:31;13.40;;;9.23;;
4268;SDS011;2148;48.554;7.834;2022-10-31T12:32:28;13.47;;;8.93;;
4268;SDS011;2148;48.554;7.834;2022-10-31T12:46:21;9.83;;;7.63;;
4268;SDS011;2148;48.554;7.834;2022-10-31T12:52:09;11.93;;;7.13;;
4268;SDS011;2148;48.554;7.834;2022-10-31T12:54:48;9.43;;;6.97;;
4268;SDS011;2148;48.554;7.834;2022-10-31T12:57:36;10.37;;;7.07;;
4268;SDS011;2148;48.554;7.834;2022-10-31T13:08:22;11.90;;;8.77;;
4268;SDS011;2148;48.554;7.834;2022-10-31T13:10:56;12.13;;;8.00;;
4268;SDS011;2148;48.554;7.834;2022-10-31T13:13:31;10.90;;;7.00;;
4268;SDS011;2148;48.554;7.834;2022-10-31T13:16:16;13.63;;;7.83;;
4268;SDS011;2148;48.554;7.834;2022-10-31T13:18:44;8.77;;;7.33;;
4268;SDS011;2148;48.554;7.834;2022-10-31T13:21:27;9.83;;;7.47;;
4268;SDS011;2148;48.554;7.834;2022-10-31T13:24:01;12.47;;;7.97;;
4268;SDS011;2148;48.554;7.834;2022-10-31T13:29:11;9.20;;;6.50;;
4268;SDS011;2148;48.554;7.834;2022-10-31T13:31:40;9.70;;;7.13;;
4268;SDS011;2148;48.554;7.834;2022-10-31T13:34:10;14.47;;;7.00;;
4268;SDS011;2148;48.554;7.834;2022-10-31T13:45:23;13.90;;;8.83;;
4268;SDS011;2148;48.554;7.834;2022-10-31T13:48:17;13.20;;;8.90;;
4268;SDS011;2148;48.554;7.834;2022-10-31T13:50:54;15.13;;;8.80;;
4268;SDS011;2148;48.554;7.834;2022-10-31T13:53:56;11.60;;;7.93;;
4268;SDS011;2148;48.554;7.834;2022-10-31T13:56:51;15.77;;;9.20;;
4268;SDS011;2148;48.554;7.834;2022-10-31T13:59:18;11.20;;;9.30;;
4268;SDS011;2148;48.554;7.834;2022-10-31T14:01:50;15.20;;;9.67;;
4268;SDS011;2148;48.554;7.834;2022-10-31T14:04:18;11.17;;;8.87;;
4268;SDS011;2148;48.554;7.834;2022-10-31T14:06:50;14.23;;;9.00;;
4268;SDS011;2148;48.554;7.834;2022-10-31T14:09:20;16.53;;;8.67;;
4268;SDS011;2148;48.554;7.834;2022-10-31T14:11:48;14.50;;;10.93;;
4268;SDS011;2148;48.554;7.834;2022-10-31T14:14:15;17.40;;;11.27;;
4268;SDS011;2148;48.554;7.834;2022-10-31T14:16:41;12.23;;;9.93;;
4268;SDS011;2148;48.554;7.834;2022-10-31T14:19:12;14.43;;;9.23;;
4268;SDS011;2148;48.554;7.834;2022-10-31T14:21:47;17.10;;;10.63;;
4268;SDS011;2148;48.554;7.834;2022-10-31T14:27:32;16.37;;;9.83;;
4268;SDS011;2148;48.554;7.834;2022-10-31T14:29:45;10.13;;;7.80;;
4268;SDS011;2148;48.554;7.834;2022-10-31T14:34:38;14.20;;;9.53;;
4268;SDS011;2148;48.554;7.834;2022-10-31T14:40:08;14.00;;;8.17;;
4268;SDS011;2148;48.554;7.834;2022-10-31T14:46:10;11.00;;;6.93;;
4268;SDS011;2148;48.554;7.834;2022-10-31T14:48:35;11.97;;;6.97;;
4268;SDS011;2148;48.554;7.834;2022-10-31T14:51:37;11.40;;;7.03;;
4268;SDS011;2148;48.554;7.834;2022-10-31T14:54:05;11.10;;;6.17;;
4268;SDS011;2148;48.554;7.834;2022-10-31T14:56:32;8.03;;;6.40;;
4268;SDS011;2148;48.554;7.834;2022-10-31T14:59:02;9.37;;;6.43;;
4268;SDS011;2148;48.554;7.834;2022-10-31T15:01:36;11.23;;;7.20;;
4268;SDS011;2148;48.554;7.834;2022-10-31T15:04:03;11.90;;;7.53;;
4268;SDS011;2148;48.554;7.834;2022-10-31T15:06:39;13.60;;;7.47;;
4268;SDS011;2148;48.554;7.834;2022-10-31T15:09:19;12.90;;;7.60;;
4268;SDS011;2148;48.554;7.834;2022-10-31T15:11:52;12.13;;;7.27;;
4268;SDS011;2148;48.554;7.834;2022-10-31T15:14:22;11.57;;;6.97;;
4268;SDS011;2148;48.554;7.834;2022-10-31T15:16:49;11.63;;;7.63;;
4268;SDS011;2148;48.554;7.834;2022-10-31T15:19:22;12.87;;;10.10;;
4268;SDS011;2148;48.554;7.834;2022-10-31T15:21:49;25.37;;;20.17;;
4268;SDS011;2148;48.554;7.834;2022-10-31T15:24:15;17.60;;;11.80;;
4268;SDS011;2148;48.554;7.834;2022-10-31T15:26:44;11.87;;;7.77;;
4268;SDS011;2148;48.554;7.834;2022-10-31T15:29:12;10.40;;;7.30;;
4268;SDS011;2148;48.554;7.834;2022-10-31T15:31:48;12.60;;;7.83;;
4268;SDS011;2148;48.554;7.834;2022-10-31T15:34:22;10.07;;;7.37;;
4268;SDS011;2148;48.554;7.834;2022-10-31T15:37:16;9.77;;;6.60;;
4268;SDS011;2148;48.554;7.834;2022-10-31T15:39:46;14.60;;;8.77;;
4268;SDS011;2148;48.554;7.834;2022-10-31T15:44:52;11.10;;;7.77;;
4268;SDS011;2148;48.554;7.834;2022-10-31T15:47:22;14.87;;;8.73;;
4268;SDS011;2148;48.554;7.834;2022-10-31T15:49:55;11.43;;;8.33;;
4268;SDS011;2148;48.554;7.834;2022-10-31T15:52:35;11.43;;;7.57;;
4268;SDS011;2148;48.554;7.834;2022-10-31T15:55:04;15.37;;;8.77;;
4268;SDS011;2148;48.554;7.834;2022-10-31T15:57:44;12.40;;;8.17;;
4268;SDS011;2148;48.554;7.834;2022-10-31T16:00:22;9.50;;;8.60;;
4268;SDS011;2148;48.554;7.834;2022-10-31T16:03:00;9.97;;;8.37;;
4268;SDS011;2148;48.554;7.834;2022-10-31T16:05:32;11.63;;;8.07;;
4268;SDS011;2148;48.554;7.834;2022-10-31T16:08:00;12.27;;;8.53;;
4268;SDS011;2148;48.554;7.834;2022-10-31T16:10:25;8.90;;;7.43;;
4268;SDS011;2148;48.554;7.834;2022-10-31T16:12:51;14.30;;;8.97;;
4268;SDS011;2148;48.554;7.834;2022-10-31T16:15:17;13.17;;;8.57;;
4268;SDS011;2148;48.554;7.834;2022-10-31T16:17:45;11.70;;;8.30;;
4268;SDS011;2148;48.554;7.834;2022-10-31T16:20:16;16.90;;;8.87;;
4268;SDS011;2148;48.554;7.834;2022-10-31T16:22:46;14.77;;;8.60;;
4268;SDS011;2148;48.554;7.834;2022-10-31T16:25:14;14.27;;;9.30;;
4268;SDS011;2148;48.554;7.834;2022-10-31T16:27:53;9.97;;;7.90;;
4268;SDS011;2148;48.554;7.834;2022-10-31T16:38:55;9.33;;;7.73;;
4268;SDS011;2148;48.554;7.834;2022-10-31T16:41:21;12.83;;;7.90;;
4268;SDS011;2148;48.554;7.834;2022-10-31T16:43:48;10.53;;;8.37;;
4268;SDS011;2148;48.554;7.834;2022-10-31T16:46:23;11.33;;;9.00;;
4268;SDS011;2148;48.554;7.834;2022-10-31T16:48:50;16.63;;;9.53;;
4268;SDS011;2148;48.554;7.834;2022-10-31T16:51:15;10.60;;;9.13;;
4268;SDS011;2148;48.554;7.834;2022-10-31T16:53:41;10.17;;;8.63;;
4268;SDS011;2148;48.554;7.834;2022-10-31T16:56:06;12.73;;;9.60;;
4268;SDS011;2148;48.554;7.834;2022-10-31T16:58:57;15.63;;;10.13;;
4268;SDS011;2148;48.554;7.834;2022-10-31T17:01:23;15.20;;;9.57;;
4268;SDS011;2148;48.554;7.834;2022-10-31T17:03:49;12.77;;;9.60;;
4268;SDS011;2148;48.554;7.834;2022-10-31T17:06:14;13.70;;;10.67;;
4268;SDS011;2148;48.554;7.834;2022-10-31T17:08:40;14.50;;;9.97;;
4268;SDS011;2148;48.554;7.834;2022-10-31T17:11:05;12.37;;;9.43;;
4268;SDS011;2148;48.554;7.834;2022-10-31T17:13:33;15.47;;;10.23;;
4268;SDS011;2148;48.554;7.834;2022-10-31T17:15:59;14.40;;;10.17;;
4268;SDS011;2148;48.554;7.834;2022-10-31T17:18:26;13.77;;;9.80;;
4268;SDS011;2148;48.554;7.834;2022-10-31T17:20:56;15.87;;;10.40;;
4268;SDS011;2148;48.554;7.834;2022-10-31T17:23:23;11.90;;;9.23;;
4268;SDS011;2148;48.554;7.834;2022-10-31T17:25:49;13.63;;;9.27;;
4268;SDS011;2148;48.554;7.834;2022-10-31T17:28:14;13.20;;;10.07;;
4268;SDS011;2148;48.554;7.834;2022-10-31T17:30:40;11.07;;;9.07;;
4268;SDS011;2148;48.554;7.834;2022-10-31T17:33:08;14.53;;;9.27;;